sensor_id;sensor_type;location;lat;lon;timestamp;temperature;humidity
40636;DHT22;26642;55.766;37.828;2023-04-03T00:02:13;14.60;68.20
40636;DHT22;26642;55.766;37.828;2023-04-03T00:04:39;14.60;68.20
40636;DHT22;26642;55.766;37.828;2023-04-03T00:07:05;14.70;68.30
40636;DHT22;26642;55.766;37.828;2023-04-03T00:09:31;14.70;68.30
40636;DHT22;26642;55.766;37.828;2023-04-03T00:11:56;14.70;68.30
40636;DHT22;26642;55.766;37.828;2023-04-03T00:14:22;14.60;68.30
40636;DHT22;26642;55.766;37.828;2023-04-03T00:16:48;14.60;68.40
40636;DHT22;26642;55.766;37.828;2023-04-03T00:19:14;14.70;68.30
40636;DHT22;26642;55.766;37.828;2023-04-03T00:21:40;14.70;68.40
40636;DHT22;26642;55.766;37.828;2023-04-03T00:24:06;14.70;68.40
40636;DHT22;26642;55.766;37.828;2023-04-03T00:26:32;14.70;68.40
40636;DHT22;26642;55.766;37.828;2023-04-03T00:28:57;14.60;68.30
40636;DHT22;26642;55.766;37.828;2023-04-03T00:31:23;14.60;68.30
40636;DHT22;26642;55.766;37.828;2023-04-03T00:33:49;14.60;68.30
40636;DHT22;26642;55.766;37.828;2023-04-03T00:36:15;14.60;68.30
40636;DHT22;26642;55.766;37.828;2023-04-03T00:38:41;14.60;68.30
40636;DHT22;26642;55.766;37.828;2023-04-03T00:41:07;14.60;68.20
40636;DHT22;26642;55.766;37.828;2023-04-03T00:43:32;14.60;68.20
40636;DHT22;26642;55.766;37.828;2023-04-03T00:45:59;14.60;68.20
40636;DHT22;26642;55.766;37.828;2023-04-03T00:50:57;14.60;68.10
40636;DHT22;26642;55.766;37.828;2023-04-03T00:53:31;14.60;68.20
40636;DHT22;26642;55.766;37.828;2023-04-03T00:55:58;14.60;68.00
40636;DHT22;26642;55.766;37.828;2023-04-03T00:58:28;14.60;68.10
40636;DHT22;26642;55.766;37.828;2023-04-03T01:00:57;14.60;68.00
40636;DHT22;26642;55.766;37.828;2023-04-03T01:03:23;14.60;68.00
40636;DHT22;26642;55.766;37.828;2023-04-03T01:05:49;14.70;68.10
40636;DHT22;26642;55.766;37.828;2023-04-03T01:08:16;14.60;68.00
40636;DHT22;26642;55.766;37.828;2023-04-03T01:10:42;14.60;68.10
40636;DHT22;26642;55.766;37.828;2023-04-03T01:13:18;14.60;68.00
40636;DHT22;26642;55.766;37.828;2023-04-03T01:15:45;14.50;67.90
40636;DHT22;26642;55.766;37.828;2023-04-03T01:18:11;14.60;68.00
40636;DHT22;26642;55.766;37.828;2023-04-03T01:20:44;14.60;68.00
40636;DHT22;26642;55.766;37.828;2023-04-03T01:23:48;14.60;67.90
40636;DHT22;26642;55.766;37.828;2023-04-03T01:26:06;14.60;68.00
40636;DHT22;26642;55.766;37.828;2023-04-03T01:28:33;14.60;68.00
40636;DHT22;26642;55.766;37.828;2023-04-03T01:33:30;14.60;68.00
40636;DHT22;26642;55.766;37.828;2023-04-03T01:35:56;14.50;68.00
40636;DHT22;26642;55.766;37.828;2023-04-03T01:38:22;14.60;68.00
40636;DHT22;26642;55.766;37.828;2023-04-03T01:40:49;14.60;68.00
40636;DHT22;26642;55.766;37.828;2023-04-03T01:43:14;14.50;68.00
40636;DHT22;26642;55.766;37.828;2023-04-03T01:45:40;14.50;68.00
40636;DHT22;26642;55.766;37.828;2023-04-03T01:48:06;14.50;67.90
40636;DHT22;26642;55.766;37.828;2023-04-03T01:50:32;14.50;68.00
40636;DHT22;26642;55.766;37.828;2023-04-03T01:52:58;14.50;68.00
40636;DHT22;26642;55.766;37.828;2023-04-03T01:55:24;14.50;67.90
40636;DHT22;26642;55.766;37.828;2023-04-03T01:57:49;14.50;67.90
40636;DHT22;26642;55.766;37.828;2023-04-03T02:00:15;14.50;67.90
40636;DHT22;26642;55.766;37.828;2023-04-03T02:02:42;14.50;67.90
40636;DHT22;26642;55.766;37.828;2023-04-03T02:05:08;14.50;67.90
40636;DHT22;26642;55.766;37.828;2023-04-03T02:07:33;14.50;68.00
40636;DHT22;26642;55.766;37.828;2023-04-03T02:09:59;14.50;68.00
40636;DHT22;26642;55.766;37.828;2023-04-03T02:12:25;14.40;67.80
40636;DHT22;26642;55.766;37.828;2023-04-03T02:14:51;14.40;67.80
40636;DHT22;26642;55.766;37.828;2023-04-03T02:17:17;14.40;67.80
40636;DHT22;26642;55.766;37.828;2023-04-03T02:19:43;14.40;67.90
40636;DHT22;26642;55.766;37.828;2023-04-03T02:22:08;14.40;67.90
40636;DHT22;26642;55.766;37.828;2023-04-03T02:24:34;14.40;68.00
40636;DHT22;26642;55.766;37.828;2023-04-03T02:27:00;14.40;67.90
40636;DHT22;26642;55.766;37.828;2023-04-03T02:29:26;14.40;67.90
40636;DHT22;26642;55.766;37.828;2023-04-03T02:31:53;14.40;67.90
40636;DHT22;26642;55.766;37.828;2023-04-03T02:34:20;14.40;68.00
40636;DHT22;26642;55.766;37.828;2023-04-03T02:36:46;14.40;68.00
40636;DHT22;26642;55.766;37.828;2023-04-03T02:39:13;14.40;68.00
40636;DHT22;26642;55.766;37.828;2023-04-03T02:41:39;14.40;68.00
40636;DHT22;26642;55.766;37.828;2023-04-03T02:44:11;14.40;68.00
40636;DHT22;26642;55.766;37.828;2023-04-03T02:46:38;14.30;67.90
40636;DHT22;26642;55.766;37.828;2023-04-03T02:49:04;14.30;68.00
40636;DHT22;26642;55.766;37.828;2023-04-03T02:51:30;14.30;68.00
40636;DHT22;26642;55.766;37.828;2023-04-03T02:53:56;14.30;67.90
40636;DHT22;26642;55.766;37.828;2023-04-03T02:56:26;14.30;67.80
40636;DHT22;26642;55.766;37.828;2023-04-03T02:58:52;14.30;67.90
40636;DHT22;26642;55.766;37.828;2023-04-03T03:01:19;14.30;67.80
40636;DHT22;26642;55.766;37.828;2023-04-03T03:03:45;14.30;67.80
40636;DHT22;26642;55.766;37.828;2023-04-03T03:06:12;14.30;67.80
40636;DHT22;26642;55.766;37.828;2023-04-03T03:08:39;14.30;67.90
40636;DHT22;26642;55.766;37.828;2023-04-03T03:11:05;14.30;67.90
40636;DHT22;26642;55.766;37.828;2023-04-03T03:13:32;14.30;67.80
40636;DHT22;26642;55.766;37.828;2023-04-03T03:15:58;14.30;67.80
40636;DHT22;26642;55.766;37.828;2023-04-03T03:18:25;14.20;67.70
40636;DHT22;26642;55.766;37.828;2023-04-03T03:20:51;14.30;67.80
40636;DHT22;26642;55.766;37.828;2023-04-03T03:23:19;14.30;67.80
40636;DHT22;26642;55.766;37.828;2023-04-03T03:25:44;14.30;67.80
40636;DHT22;26642;55.766;37.828;2023-04-03T03:28:10;14.30;67.90
40636;DHT22;26642;55.766;37.828;2023-04-03T03:30:37;14.30;67.80
40636;DHT22;26642;55.766;37.828;2023-04-03T03:33:03;14.30;67.90
40636;DHT22;26642;55.766;37.828;2023-04-03T03:35:29;14.30;67.80
40636;DHT22;26642;55.766;37.828;2023-04-03T03:37:55;14.30;67.80
40636;DHT22;26642;55.766;37.828;2023-04-03T03:40:21;14.30;67.70
40636;DHT22;26642;55.766;37.828;2023-04-03T03:42:47;14.30;67.60
40636;DHT22;26642;55.766;37.828;2023-04-03T03:45:13;14.30;67.60
40636;DHT22;26642;55.766;37.828;2023-04-03T03:47:40;14.30;67.50
40636;DHT22;26642;55.766;37.828;2023-04-03T03:50:07;14.30;67.50
40636;DHT22;26642;55.766;37.828;2023-04-03T03:52:32;14.40;67.50
40636;DHT22;26642;55.766;37.828;2023-04-03T03:54:58;14.40;67.50
40636;DHT22;26642;55.766;37.828;2023-04-03T03:57:25;14.40;67.40
40636;DHT22;26642;55.766;37.828;2023-04-03T03:59:54;14.40;67.40
40636;DHT22;26642;55.766;37.828;2023-04-03T04:02:20;14.40;67.40
40636;DHT22;26642;55.766;37.828;2023-04-03T04:04:46;14.40;67.30
40636;DHT22;26642;55.766;37.828;2023-04-03T04:07:13;14.40;67.60
40636;DHT22;26642;55.766;37.828;2023-04-03T04:09:39;14.40;67.10
40636;DHT22;26642;55.766;37.828;2023-04-03T04:12:07;14.40;66.90
40636;DHT22;26642;55.766;37.828;2023-04-03T04:14:34;14.40;66.70
40636;DHT22;26642;55.766;37.828;2023-04-03T04:17:00;14.40;66.80
40636;DHT22;26642;55.766;37.828;2023-04-03T04:19:28;14.40;66.60
40636;DHT22;26642;55.766;37.828;2023-04-03T04:21:54;14.40;66.60
40636;DHT22;26642;55.766;37.828;2023-04-03T04:24:20;14.40;66.50
40636;DHT22;26642;55.766;37.828;2023-04-03T04:26:49;14.40;66.40
40636;DHT22;26642;55.766;37.828;2023-04-03T04:29:16;14.40;66.50
40636;DHT22;26642;55.766;37.828;2023-04-03T04:31:45;14.40;66.40
40636;DHT22;26642;55.766;37.828;2023-04-03T04:34:11;14.40;66.40
40636;DHT22;26642;55.766;37.828;2023-04-03T04:36:38;14.50;66.50
40636;DHT22;26642;55.766;37.828;2023-04-03T04:39:05;14.50;66.90
40636;DHT22;26642;55.766;37.828;2023-04-03T04:41:31;14.50;67.40
40636;DHT22;26642;55.766;37.828;2023-04-03T04:43:57;14.50;67.80
40636;DHT22;26642;55.766;37.828;2023-04-03T04:46:23;14.50;67.90
40636;DHT22;26642;55.766;37.828;2023-04-03T04:48:54;14.50;68.10
40636;DHT22;26642;55.766;37.828;2023-04-03T04:51:22;14.50;68.20
40636;DHT22;26642;55.766;37.828;2023-04-03T04:53:48;14.60;68.50
40636;DHT22;26642;55.766;37.828;2023-04-03T04:56:16;14.60;68.80
40636;DHT22;26642;55.766;37.828;2023-04-03T04:58:42;14.60;69.00
40636;DHT22;26642;55.766;37.828;2023-04-03T05:01:09;14.60;68.90
40636;DHT22;26642;55.766;37.828;2023-04-03T05:03:42;14.70;69.00
40636;DHT22;26642;55.766;37.828;2023-04-03T05:06:08;14.60;68.90
40636;DHT22;26642;55.766;37.828;2023-04-03T05:08:35;14.70;69.00
40636;DHT22;26642;55.766;37.828;2023-04-03T05:11:02;14.70;68.90
40636;DHT22;26642;55.766;37.828;2023-04-03T05:13:29;14.70;68.50
40636;DHT22;26642;55.766;37.828;2023-04-03T05:15:56;14.70;68.10
40636;DHT22;26642;55.766;37.828;2023-04-03T05:18:25;14.70;67.80
40636;DHT22;26642;55.766;37.828;2023-04-03T05:20:54;14.70;67.40
40636;DHT22;26642;55.766;37.828;2023-04-03T05:23:22;14.70;67.10
40636;DHT22;26642;55.766;37.828;2023-04-03T05:25:48;14.70;66.90
40636;DHT22;26642;55.766;37.828;2023-04-03T05:28:15;14.70;66.70
40636;DHT22;26642;55.766;37.828;2023-04-03T05:30:41;14.80;66.60
40636;DHT22;26642;55.766;37.828;2023-04-03T05:33:08;14.80;67.10
40636;DHT22;26642;55.766;37.828;2023-04-03T05:35:43;14.80;66.20
40636;DHT22;26642;55.766;37.828;2023-04-03T05:38:13;14.80;66.10
40636;DHT22;26642;55.766;37.828;2023-04-03T05:40:40;14.80;65.80
40636;DHT22;26642;55.766;37.828;2023-04-03T05:43:06;14.70;65.70
40636;DHT22;26642;55.766;37.828;2023-04-03T05:45:35;14.70;65.60
40636;DHT22;26642;55.766;37.828;2023-04-03T05:48:01;14.70;65.50
40636;DHT22;26642;55.766;37.828;2023-04-03T05:50:28;14.70;65.40
40636;DHT22;26642;55.766;37.828;2023-04-03T05:52:55;14.70;65.30
40636;DHT22;26642;55.766;37.828;2023-04-03T05:55:23;14.70;65.30
40636;DHT22;26642;55.766;37.828;2023-04-03T05:57:49;14.80;65.30
40636;DHT22;26642;55.766;37.828;2023-04-03T06:00:15;14.80;65.20
40636;DHT22;26642;55.766;37.828;2023-04-03T06:02:46;14.80;65.20
40636;DHT22;26642;55.766;37.828;2023-04-03T06:05:17;14.90;65.00
40636;DHT22;26642;55.766;37.828;2023-04-03T06:07:43;14.90;64.90
40636;DHT22;26642;55.766;37.828;2023-04-03T06:10:11;14.90;65.10
40636;DHT22;26642;55.766;37.828;2023-04-03T06:12:37;15.00;65.10
40636;DHT22;26642;55.766;37.828;2023-04-03T06:15:03;15.00;65.60
40636;DHT22;26642;55.766;37.828;2023-04-03T06:17:29;15.10;65.10
40636;DHT22;26642;55.766;37.828;2023-04-03T06:19:55;15.10;65.10
40636;DHT22;26642;55.766;37.828;2023-04-03T06:22:21;15.10;65.10
40636;DHT22;26642;55.766;37.828;2023-04-03T06:24:47;15.10;65.10
40636;DHT22;26642;55.766;37.828;2023-04-03T06:27:13;15.20;65.10
40636;DHT22;26642;55.766;37.828;2023-04-03T06:29:38;15.20;65.00
40636;DHT22;26642;55.766;37.828;2023-04-03T06:32:04;15.20;65.20
40636;DHT22;26642;55.766;37.828;2023-04-03T06:34:30;15.20;65.10
40636;DHT22;26642;55.766;37.828;2023-04-03T06:36:56;15.20;65.10
40636;DHT22;26642;55.766;37.828;2023-04-03T06:39:22;15.20;65.20
40636;DHT22;26642;55.766;37.828;2023-04-03T06:41:48;15.20;65.20
40636;DHT22;26642;55.766;37.828;2023-04-03T06:44:16;15.20;65.20
40636;DHT22;26642;55.766;37.828;2023-04-03T06:46:42;15.20;65.20
40636;DHT22;26642;55.766;37.828;2023-04-03T06:49:08;15.20;65.20
40636;DHT22;26642;55.766;37.828;2023-04-03T06:51:34;15.20;65.20
40636;DHT22;26642;55.766;37.828;2023-04-03T06:54:01;15.30;65.20
40636;DHT22;26642;55.766;37.828;2023-04-03T06:56:28;15.30;65.80
40636;DHT22;26642;55.766;37.828;2023-04-03T06:58:54;15.30;65.10
40636;DHT22;26642;55.766;37.828;2023-04-03T07:01:23;15.40;65.10
40636;DHT22;26642;55.766;37.828;2023-04-03T07:03:49;15.40;64.90
40636;DHT22;26642;55.766;37.828;2023-04-03T07:06:15;15.40;64.90
40636;DHT22;26642;55.766;37.828;2023-04-03T07:08:41;15.50;64.90
40636;DHT22;26642;55.766;37.828;2023-04-03T07:11:08;15.50;64.80
40636;DHT22;26642;55.766;37.828;2023-04-03T07:13:34;15.60;64.80
40636;DHT22;26642;55.766;37.828;2023-04-03T07:16:00;15.70;64.80
40636;DHT22;26642;55.766;37.828;2023-04-03T07:18:25;15.80;64.90
40636;DHT22;26642;55.766;37.828;2023-04-03T07:20:51;15.80;65.00
40636;DHT22;26642;55.766;37.828;2023-04-03T07:23:17;15.90;64.90
40636;DHT22;26642;55.766;37.828;2023-04-03T07:25:44;16.00;64.90
40636;DHT22;26642;55.766;37.828;2023-04-03T07:28:09;16.10;64.80
40636;DHT22;26642;55.766;37.828;2023-04-03T07:30:41;16.20;64.70
40636;DHT22;26642;55.766;37.828;2023-04-03T07:33:07;16.20;64.70
40636;DHT22;26642;55.766;37.828;2023-04-03T07:35:33;16.30;64.50
40636;DHT22;26642;55.766;37.828;2023-04-03T07:37:59;16.40;64.40
40636;DHT22;26642;55.766;37.828;2023-04-03T07:40:25;16.50;64.40
40636;DHT22;26642;55.766;37.828;2023-04-03T07:42:51;16.50;63.90
40636;DHT22;26642;55.766;37.828;2023-04-03T07:45:17;16.60;64.00
40636;DHT22;26642;55.766;37.828;2023-04-03T07:47:44;16.70;63.80
40636;DHT22;26642;55.766;37.828;2023-04-03T07:50:10;16.70;63.80
40636;DHT22;26642;55.766;37.828;2023-04-03T07:52:36;16.80;63.80
40636;DHT22;26642;55.766;37.828;2023-04-03T07:55:02;16.90;64.00
40636;DHT22;26642;55.766;37.828;2023-04-03T07:57:27;16.80;64.10
40636;DHT22;26642;55.766;37.828;2023-04-03T07:59:53;16.90;64.00
40636;DHT22;26642;55.766;37.828;2023-04-03T08:02:19;16.90;61.30
40636;DHT22;26642;55.766;37.828;2023-04-03T08:04:45;16.90;61.40
40636;DHT22;26642;55.766;37.828;2023-04-03T08:07:11;16.90;61.60
40636;DHT22;26642;55.766;37.828;2023-04-03T08:09:36;16.90;61.30
40636;DHT22;26642;55.766;37.828;2023-04-03T08:12:02;16.90;61.80
40636;DHT22;26642;55.766;37.828;2023-04-03T08:14:30;17.00;61.90
40636;DHT22;26642;55.766;37.828;2023-04-03T08:16:56;17.00;61.70
40636;DHT22;26642;55.766;37.828;2023-04-03T08:19:22;17.00;62.50
40636;DHT22;26642;55.766;37.828;2023-04-03T08:21:47;17.10;62.70
40636;DHT22;26642;55.766;37.828;2023-04-03T08:24:13;17.10;62.70
40636;DHT22;26642;55.766;37.828;2023-04-03T08:26:39;17.20;62.30
40636;DHT22;26642;55.766;37.828;2023-04-03T08:29:05;17.20;62.00
40636;DHT22;26642;55.766;37.828;2023-04-03T08:31:30;17.20;62.40
40636;DHT22;26642;55.766;37.828;2023-04-03T08:33:57;17.20;62.20
40636;DHT22;26642;55.766;37.828;2023-04-03T08:36:27;17.30;62.10
40636;DHT22;26642;55.766;37.828;2023-04-03T08:38:53;17.30;61.90
40636;DHT22;26642;55.766;37.828;2023-04-03T08:41:38;17.30;61.40
40636;DHT22;26642;55.766;37.828;2023-04-03T08:46:54;17.40;61.40
40636;DHT22;26642;55.766;37.828;2023-04-03T08:49:20;17.40;61.10
40636;DHT22;26642;55.766;37.828;2023-04-03T08:51:48;17.40;61.50
40636;DHT22;26642;55.766;37.828;2023-04-03T08:55:16;17.40;61.60
40636;DHT22;26642;55.766;37.828;2023-04-03T08:57:10;17.50;61.60
40636;DHT22;26642;55.766;37.828;2023-04-03T08:59:37;17.50;61.00
40636;DHT22;26642;55.766;37.828;2023-04-03T09:02:13;17.50;61.20
40636;DHT22;26642;55.766;37.828;2023-04-03T09:04:43;17.50;61.60
40636;DHT22;26642;55.766;37.828;2023-04-03T09:07:13;17.50;61.70
40636;DHT22;26642;55.766;37.828;2023-04-03T09:09:42;17.50;61.50
40636;DHT22;26642;55.766;37.828;2023-04-03T09:14:52;17.60;61.50
40636;DHT22;26642;55.766;37.828;2023-04-03T09:17:30;17.60;61.30
40636;DHT22;26642;55.766;37.828;2023-04-03T09:20:14;17.70;61.00
40636;DHT22;26642;55.766;37.828;2023-04-03T09:22:42;17.70;60.70
40636;DHT22;26642;55.766;37.828;2023-04-03T09:25:17;17.70;60.80
40636;DHT22;26642;55.766;37.828;2023-04-03T09:27:44;17.70;60.70
40636;DHT22;26642;55.766;37.828;2023-04-03T09:30:17;17.80;60.60
40636;DHT22;26642;55.766;37.828;2023-04-03T09:32:47;17.80;60.60
40636;DHT22;26642;55.766;37.828;2023-04-03T09:37:43;17.80;61.30
40636;DHT22;26642;55.766;37.828;2023-04-03T09:42:57;17.80;60.90
40636;DHT22;26642;55.766;37.828;2023-04-03T09:45:25;17.90;61.00
40636;DHT22;26642;55.766;37.828;2023-04-03T09:48:06;17.90;61.10
40636;DHT22;26642;55.766;37.828;2023-04-03T09:50:33;17.90;60.70
40636;DHT22;26642;55.766;37.828;2023-04-03T09:53:01;17.90;60.50
40636;DHT22;26642;55.766;37.828;2023-04-03T09:55:29;18.00;61.80
40636;DHT22;26642;55.766;37.828;2023-04-03T09:57:59;18.00;61.10
40636;DHT22;26642;55.766;37.828;2023-04-03T10:00:36;18.00;60.50
40636;DHT22;26642;55.766;37.828;2023-04-03T10:03:02;18.00;60.50
40636;DHT22;26642;55.766;37.828;2023-04-03T10:05:39;18.10;60.90
40636;DHT22;26642;55.766;37.828;2023-04-03T10:08:19;18.10;60.50
40636;DHT22;26642;55.766;37.828;2023-04-03T10:10:47;18.10;60.60
40636;DHT22;26642;55.766;37.828;2023-04-03T10:13:14;18.10;60.20
40636;DHT22;26642;55.766;37.828;2023-04-03T10:15:43;18.10;60.20
40636;DHT22;26642;55.766;37.828;2023-04-03T10:20:47;18.10;59.80
40636;DHT22;26642;55.766;37.828;2023-04-03T10:23:17;18.20;60.40
40636;DHT22;26642;55.766;37.828;2023-04-03T10:33:59;18.20;60.50
40636;DHT22;26642;55.766;37.828;2023-04-03T10:36:31;18.20;60.40
40636;DHT22;26642;55.766;37.828;2023-04-03T10:39:04;18.20;60.30
40636;DHT22;26642;55.766;37.828;2023-04-03T10:47:01;18.20;60.80
40636;DHT22;26642;55.766;37.828;2023-04-03T10:57:13;18.30;60.70
40636;DHT22;26642;55.766;37.828;2023-04-03T10:59:47;18.20;60.20
40636;DHT22;26642;55.766;37.828;2023-04-03T11:05:06;18.20;58.40
40636;DHT22;26642;55.766;37.828;2023-04-03T11:07:38;18.20;57.20
40636;DHT22;26642;55.766;37.828;2023-04-03T11:12:48;18.10;56.40
40636;DHT22;26642;55.766;37.828;2023-04-03T11:15:17;18.10;56.10
40636;DHT22;26642;55.766;37.828;2023-04-03T11:18:04;18.00;55.90
40636;DHT22;26642;55.766;37.828;2023-04-03T11:20:32;18.00;56.00
40636;DHT22;26642;55.766;37.828;2023-04-03T11:25:44;17.90;55.70
40636;DHT22;26642;55.766;37.828;2023-04-03T11:28:12;17.90;55.90
40636;DHT22;26642;55.766;37.828;2023-04-03T11:35:46;17.80;56.20
40636;DHT22;26642;55.766;37.828;2023-04-03T11:38:26;17.70;56.10
40636;DHT22;26642;55.766;37.828;2023-04-03T11:40:55;17.80;56.20
40636;DHT22;26642;55.766;37.828;2023-04-03T11:50:52;17.50;56.30
40636;DHT22;26642;55.766;37.828;2023-04-03T11:53:29;17.50;56.10
40636;DHT22;26642;55.766;37.828;2023-04-03T11:55:56;17.50;56.20
40636;DHT22;26642;55.766;37.828;2023-04-03T11:58:23;17.50;56.40
40636;DHT22;26642;55.766;37.828;2023-04-03T12:00:50;17.50;56.40
40636;DHT22;26642;55.766;37.828;2023-04-03T12:05:47;17.50;56.50
40636;DHT22;26642;55.766;37.828;2023-04-03T12:08:34;17.50;56.60
40636;DHT22;26642;55.766;37.828;2023-04-03T12:13:41;17.40;56.40
40636;DHT22;26642;55.766;37.828;2023-04-03T12:16:29;17.40;56.10
40636;DHT22;26642;55.766;37.828;2023-04-03T12:19:00;17.30;56.10
40636;DHT22;26642;55.766;37.828;2023-04-03T12:26:50;17.30;56.40
40636;DHT22;26642;55.766;37.828;2023-04-03T12:39:55;17.20;56.20
40636;DHT22;26642;55.766;37.828;2023-04-03T12:45:20;17.10;56.00
40636;DHT22;26642;55.766;37.828;2023-04-03T12:47:47;17.10;56.10
40636;DHT22;26642;55.766;37.828;2023-04-03T12:50:35;17.10;56.10
40636;DHT22;26642;55.766;37.828;2023-04-03T12:53:04;17.00;56.10
40636;DHT22;26642;55.766;37.828;2023-04-03T12:55:30;17.00;56.10
40636;DHT22;26642;55.766;37.828;2023-04-03T12:57:56;17.00;56.10
40636;DHT22;26642;55.766;37.828;2023-04-03T13:00:27;17.00;56.40
40636;DHT22;26642;55.766;37.828;2023-04-03T13:02:53;17.00;56.50
40636;DHT22;26642;55.766;37.828;2023-04-03T13:05:19;16.90;56.70
40636;DHT22;26642;55.766;37.828;2023-04-03T13:07:48;16.90;56.70
40636;DHT22;26642;55.766;37.828;2023-04-03T13:10:15;16.90;57.00
40636;DHT22;26642;55.766;37.828;2023-04-03T13:12:49;16.90;57.10
40636;DHT22;26642;55.766;37.828;2023-04-03T13:15:16;16.90;57.40
40636;DHT22;26642;55.766;37.828;2023-04-03T13:17:43;16.90;57.60
40636;DHT22;26642;55.766;37.828;2023-04-03T13:20:10;16.90;57.80
40636;DHT22;26642;55.766;37.828;2023-04-03T13:22:37;16.80;58.00
40636;DHT22;26642;55.766;37.828;2023-04-03T13:25:09;16.80;58.80
40636;DHT22;26642;55.766;37.828;2023-04-03T13:27:36;16.80;58.30
40636;DHT22;26642;55.766;37.828;2023-04-03T13:30:04;16.80;58.30
40636;DHT22;26642;55.766;37.828;2023-04-03T13:32:31;16.80;58.30
40636;DHT22;26642;55.766;37.828;2023-04-03T13:34:58;16.80;58.40
40636;DHT22;26642;55.766;37.828;2023-04-03T13:37:28;16.80;58.60
40636;DHT22;26642;55.766;37.828;2023-04-03T13:40:02;16.80;58.60
40636;DHT22;26642;55.766;37.828;2023-04-03T13:42:30;16.80;58.70
40636;DHT22;26642;55.766;37.828;2023-04-03T13:47:38;16.70;59.00
40636;DHT22;26642;55.766;37.828;2023-04-03T13:50:15;16.70;59.20
40636;DHT22;26642;55.766;37.828;2023-04-03T13:55:29;16.70;59.30
40636;DHT22;26642;55.766;37.828;2023-04-03T13:57:57;16.70;59.30
40636;DHT22;26642;55.766;37.828;2023-04-03T14:03:18;16.70;59.60
40636;DHT22;26642;55.766;37.828;2023-04-03T14:05:46;16.60;60.30
40636;DHT22;26642;55.766;37.828;2023-04-03T14:08:11;16.70;60.00
40636;DHT22;26642;55.766;37.828;2023-04-03T14:10:37;16.60;60.60
40636;DHT22;26642;55.766;37.828;2023-04-03T14:13:04;16.60;60.10
40636;DHT22;26642;55.766;37.828;2023-04-03T14:15:30;16.60;60.10
40636;DHT22;26642;55.766;37.828;2023-04-03T14:17:56;16.60;60.30
40636;DHT22;26642;55.766;37.828;2023-04-03T14:20:23;16.60;60.50
40636;DHT22;26642;55.766;37.828;2023-04-03T14:22:50;16.60;60.70
40636;DHT22;26642;55.766;37.828;2023-04-03T14:25:17;16.60;60.70
40636;DHT22;26642;55.766;37.828;2023-04-03T14:27:44;16.60;60.70
40636;DHT22;26642;55.766;37.828;2023-04-03T14:30:15;16.60;60.90
40636;DHT22;26642;55.766;37.828;2023-04-03T14:32:41;16.60;60.90
40636;DHT22;26642;55.766;37.828;2023-04-03T14:35:07;16.50;60.90
40636;DHT22;26642;55.766;37.828;2023-04-03T14:37:33;16.50;60.90
40636;DHT22;26642;55.766;37.828;2023-04-03T14:40:00;16.50;60.80
40636;DHT22;26642;55.766;37.828;2023-04-03T14:42:30;16.50;60.90
40636;DHT22;26642;55.766;37.828;2023-04-03T14:44:57;16.50;60.80
40636;DHT22;26642;55.766;37.828;2023-04-03T14:47:24;16.50;60.90
40636;DHT22;26642;55.766;37.828;2023-04-03T14:49:51;16.50;61.00
40636;DHT22;26642;55.766;37.828;2023-04-03T14:52:21;16.50;61.00
40636;DHT22;26642;55.766;37.828;2023-04-03T14:54:48;16.50;60.90
40636;DHT22;26642;55.766;37.828;2023-04-03T14:57:14;16.40;60.90
40636;DHT22;26642;55.766;37.828;2023-04-03T14:59:40;16.40;61.00
40636;DHT22;26642;55.766;37.828;2023-04-03T15:02:24;16.30;61.10
40636;DHT22;26642;55.766;37.828;2023-04-03T15:04:50;16.30;61.10
40636;DHT22;26642;55.766;37.828;2023-04-03T15:07:16;16.30;61.30
40636;DHT22;26642;55.766;37.828;2023-04-03T15:09:42;16.20;61.30
40636;DHT22;26642;55.766;37.828;2023-04-03T15:12:08;16.30;61.50
40636;DHT22;26642;55.766;37.828;2023-04-03T15:14:34;16.30;61.50
40636;DHT22;26642;55.766;37.828;2023-04-03T15:17:00;16.20;61.60
40636;DHT22;26642;55.766;37.828;2023-04-03T15:19:25;16.10;61.70
40636;DHT22;26642;55.766;37.828;2023-04-03T15:21:51;16.20;61.90
40636;DHT22;26642;55.766;37.828;2023-04-03T15:24:17;16.10;61.60
40636;DHT22;26642;55.766;37.828;2023-04-03T15:26:43;16.10;61.50
40636;DHT22;26642;55.766;37.828;2023-04-03T15:29:09;16.10;61.40
40636;DHT22;26642;55.766;37.828;2023-04-03T15:31:35;16.10;61.60
40636;DHT22;26642;55.766;37.828;2023-04-03T15:34:01;16.10;61.50
40636;DHT22;26642;55.766;37.828;2023-04-03T15:36:28;16.00;61.50
40636;DHT22;26642;55.766;37.828;2023-04-03T15:38:53;16.10;61.60
40636;DHT22;26642;55.766;37.828;2023-04-03T15:41:19;16.00;61.50
40636;DHT22;26642;55.766;37.828;2023-04-03T15:43:46;16.10;61.30
40636;DHT22;26642;55.766;37.828;2023-04-03T15:46:12;16.00;61.30
40636;DHT22;26642;55.766;37.828;2023-04-03T15:48:38;16.00;61.30
40636;DHT22;26642;55.766;37.828;2023-04-03T15:51:05;16.10;61.30
40636;DHT22;26642;55.766;37.828;2023-04-03T15:53:30;16.00;61.20
40636;DHT22;26642;55.766;37.828;2023-04-03T15:55:56;16.00;61.30
40636;DHT22;26642;55.766;37.828;2023-04-03T15:58:22;16.00;61.30
40636;DHT22;26642;55.766;37.828;2023-04-03T16:00:48;16.00;61.30
40636;DHT22;26642;55.766;37.828;2023-04-03T16:03:18;16.00;61.30
40636;DHT22;26642;55.766;37.828;2023-04-03T16:05:45;16.00;61.30
40636;DHT22;26642;55.766;37.828;2023-04-03T16:08:11;15.90;61.30
40636;DHT22;26642;55.766;37.828;2023-04-03T16:10:37;15.90;61.50
40636;DHT22;26642;55.766;37.828;2023-04-03T16:13:03;15.90;61.60
40636;DHT22;26642;55.766;37.828;2023-04-03T16:15:29;15.90;61.80
40636;DHT22;26642;55.766;37.828;2023-04-03T16:17:56;15.90;62.00
40636;DHT22;26642;55.766;37.828;2023-04-03T16:20:23;15.90;62.00
40636;DHT22;26642;55.766;37.828;2023-04-03T16:22:50;15.90;62.20
40636;DHT22;26642;55.766;37.828;2023-04-03T16:25:16;15.80;62.10
40636;DHT22;26642;55.766;37.828;2023-04-03T16:27:42;15.80;62.20
40636;DHT22;26642;55.766;37.828;2023-04-03T16:30:08;15.80;62.30
40636;DHT22;26642;55.766;37.828;2023-04-03T16:32:35;15.70;62.20
40636;DHT22;26642;55.766;37.828;2023-04-03T16:35:01;15.70;62.20
40636;DHT22;26642;55.766;37.828;2023-04-03T16:37:27;15.70;62.20
40636;DHT22;26642;55.766;37.828;2023-04-03T16:39:53;15.60;62.20
40636;DHT22;26642;55.766;37.828;2023-04-03T16:42:19;15.60;62.20
40636;DHT22;26642;55.766;37.828;2023-04-03T16:44:44;15.60;62.10
40636;DHT22;26642;55.766;37.828;2023-04-03T16:47:10;15.60;62.10
40636;DHT22;26642;55.766;37.828;2023-04-03T16:49:38;15.50;62.00
40636;DHT22;26642;55.766;37.828;2023-04-03T16:52:04;15.50;61.70